Time;durP1;ratioP1;P1;durP2;ratioP2;P2;SDS_P1;SDS_P2;PMS_P1;PMS_P2;Temp;Humidity;BMP_temperature;BMP_pressure;BME280_temperature;BME280_humidity;BME280_pressure;Samples;Min_cycle;Max_cycle;Signal;HPM_P1;HPM_P2
2021/12/08 00:00:53;;;;;;;82.28;36.28;;;;;;;4.95;57.26;100230.31;5093229;28;20064;-70
2021/12/08 00:03:24;;;;;;;79.40;34.92;;;;;;;5.14;56.63;100236.91;5088791;28;20052;-71
2021/12/08 00:05:51;;;;;;;88.65;37.40;;;;;;;5.33;56.62;100228.47;5093281;28;20093;-71
2021/12/08 00:08:20;;;;;;;81.65;35.15;;;;;;;5.39;56.07;100228.03;5093328;28;20465;-70
2021/12/08 00:13:29;;;;;;;91.32;36.75;;;;;;;5.00;56.91;100228.19;5094801;28;20059;-70
2021/12/08 00:15:59;;;;;;;82.50;34.90;;;;;;;5.20;56.52;100236.47;5094861;28;20046;-70
2021/12/08 00:18:29;;;;;;;83.32;36.10;;;;;;;4.90;57.45;100236.88;5094960;28;20048;-70
2021/12/08 00:20:59;;;;;;;83.15;35.45;;;;;;;4.70;57.59;100227.72;5093598;28;20066;-70
2021/12/08 00:23:27;;;;;;;84.20;34.33;;;;;;;5.19;56.54;100232.94;5093445;28;20080;-70
2021/12/08 00:25:54;;;;;;;77.35;35.22;;;;;;;5.50;55.41;100228.06;5094854;28;20126;-70
2021/12/08 00:28:22;;;;;;;85.85;35.92;;;;;;;4.75;57.90;100215.91;5093889;28;20043;-70
2021/12/08 00:30:52;;;;;;;76.75;33.85;;;;;;;4.91;57.34;100218.25;5092663;28;20444;-70
2021/12/08 00:33:20;;;;;;;82.07;34.35;;;;;;;5.07;56.33;100220.66;5095653;28;20443;-70
2021/12/08 00:35:49;;;;;;;79.45;33.72;;;;;;;4.90;57.23;100216.59;5098970;28;20040;-70
2021/12/08 00:38:19;;;;;;;75.07;32.33;;;;;;;4.61;58.16;100217.84;5098753;28;20040;-70
2021/12/08 00:40:49;;;;;;;85.25;35.35;;;;;;;4.74;57.52;100205.44;5099520;28;20064;-70
2021/12/08 00:43:17;;;;;;;72.75;32.45;;;;;;;4.92;56.93;100201.50;5099194;28;20059;-70
2021/12/08 00:45:44;;;;;;;71.00;32.83;;;;;;;4.81;56.77;100195.28;5099495;28;20044;-70
2021/12/08 00:48:11;;;;;;;73.43;32.95;;;;;;;4.71;57.31;100182.75;5098060;28;20055;-70
2021/12/08 00:50:39;;;;;;;76.60;32.78;;;;;;;4.95;56.99;100193.34;5099216;28;20048;-70
2021/12/08 00:53:07;;;;;;;75.13;32.50;;;;;;;4.45;57.85;100183.75;5099326;28;20044;-70
2021/12/08 00:55:34;;;;;;;73.32;32.40;;;;;;;4.48;58.32;100173.81;5099698;28;20134;-70
2021/12/08 00:58:02;;;;;;;72.55;32.63;;;;;;;3.87;60.00;100170.19;5081303;28;20072;-70
2021/12/08 01:00:38;;;;;;;75.57;34.00;;;;;;;4.48;58.24;100168.53;5099580;28;20101;-70
2021/12/08 01:03:06;;;;;;;75.40;33.22;;;;;;;4.52;58.17;100169.16;5101026;28;20082;-70
2021/12/08 01:05:38;;;;;;;85.13;35.42;;;;;;;4.44;58.10;100159.16;5099440;28;20074;-70
2021/12/08 01:08:06;;;;;;;81.07;34.42;;;;;;;4.72;57.65;100160.66;5097211;28;20047;-70
2021/12/08 01:10:34;;;;;;;75.18;33.53;;;;;;;4.68;57.27;100156.56;5096784;28;20122;-70
2021/12/08 01:13:08;;;;;;;75.00;34.03;;;;;;;4.80;57.02;100149.53;5107104;28;20051;-70
2021/12/08 01:15:41;;;;;;;77.68;33.35;;;;;;;4.41;57.96;100145.34;5101591;28;20075;-70
2021/12/08 01:18:07;;;;;;;81.13;34.60;;;;;;;5.27;56.06;100139.94;5099923;28;20114;-70
2021/12/08 01:20:34;;;;;;;78.75;32.65;;;;;;;4.94;56.12;100144.09;5100454;28;20063;-70
2021/12/08 01:23:01;;;;;;;79.80;32.55;;;;;;;4.92;56.12;100132.81;5097508;28;20044;-70
2021/12/08 01:25:28;;;;;;;80.68;33.38;;;;;;;4.99;56.86;100136.69;5097776;28;20079;-70
2021/12/08 01:27:54;;;;;;;77.05;31.77;;;;;;;4.71;57.35;100137.00;5098829;28;20066;-70
2021/12/08 01:30:21;;;;;;;73.35;32.58;;;;;;;4.88;56.91;100139.25;5096132;28;20131;-70
2021/12/08 01:32:49;;;;;;;74.65;32.42;;;;;;;4.71;57.34;100121.16;5095632;28;20076;-70
2021/12/08 01:35:15;;;;;;;84.72;35.17;;;;;;;4.83;56.91;100111.53;5095769;28;25152;-70
2021/12/08 01:37:42;;;;;;;75.07;33.03;;;;;;;4.56;57.15;100117.84;5096209;28;20094;-70
2021/12/08 01:40:12;;;;;;;73.78;32.30;;;;;;;4.85;56.62;100120.16;5096507;28;20127;-70
2021/12/08 01:42:45;;;;;;;73.93;33.03;;;;;;;4.89;56.42;100113.72;5095570;28;20154;-70
2021/12/08 01:48:06;;;;;;;65.53;29.95;;;;;;;4.42;57.78;100096.88;5096382;28;20028;-70
2021/12/08 01:50:33;;;;;;;68.35;31.77;;;;;;;4.85;56.72;100085.81;5097846;28;20063;-69
2021/12/08 01:53:00;;;;;;;77.28;32.20;;;;;;;4.33;57.64;100085.22;5099664;28;20127;-69
2021/12/08 01:55:27;;;;;;;80.68;34.17;;;;;;;4.47;57.98;100087.69;5100312;28;20070;-70
2021/12/08 01:57:53;;;;;;;82.05;34.00;;;;;;;4.71;57.18;100079.78;5101285;28;20480;-70
2021/12/08 02:00:33;;;;;;;66.25;29.35;;;;;;;4.09;58.46;100071.97;5101150;28;20067;-70
2021/12/08 02:03:00;;;;;;;66.95;30.55;;;;;;;4.12;58.65;100070.88;5100755;28;20044;-70
2021/12/08 02:09:16;;;;;;;75.90;30.67;;;;;;;4.40;57.72;100064.47;5098741;28;20538;-70
2021/12/08 02:11:46;;;;;;;76.45;32.42;;;;;;;4.34;57.65;100065.78;5099693;28;20050;-70
2021/12/08 02:14:14;;;;;;;77.80;32.63;;;;;;;4.84;56.70;100057.75;5098895;28;20078;-70
2021/12/08 02:16:49;;;;;;;68.85;31.17;;;;;;;4.46;57.89;100049.03;5099535;28;20055;-69
2021/12/08 02:19:16;;;;;;;75.45;31.88;;;;;;;4.31;57.49;100054.59;5098186;28;20056;-70
2021/12/08 02:21:43;;;;;;;76.47;32.17;;;;;;;4.35;57.56;100050.78;5098677;28;20075;-70
2021/12/08 02:24:13;;;;;;;77.32;31.65;;;;;;;4.33;57.86;100053.56;5094113;28;20127;-69
2021/12/08 02:26:44;;;;;;;69.00;31.17;;;;;;;4.36;57.93;100042.75;5098706;28;20040;-70
2021/12/08 02:29:15;;;;;;;76.93;33.92;;;;;;;4.70;57.01;100045.56;5099144;28;20395;-70
2021/12/08 02:31:52;;;;;;;80.82;32.83;;;;;;;4.68;56.97;100021.94;5099139;28;20097;-69
2021/12/08 02:48:06;;;;;;;68.32;31.13;;;;;;;4.57;56.90;100029.78;5098039;28;20044;-69
2021/12/08 02:50:37;;;;;;;74.50;32.53;;;;;;;4.49;57.49;100032.16;5098774;28;20070;-69
2021/12/08 02:53:05;;;;;;;76.28;32.30;;;;;;;4.08;58.26;100025.44;5096343;28;20119;-69
2021/12/08 02:55:33;;;;;;;69.05;30.52;;;;;;;4.38;57.89;100025.03;5095578;28;20131;-69
2021/12/08 02:58:01;;;;;;;79.95;32.78;;;;;;;4.32;57.50;100025.47;5092932;28;20040;-69
2021/12/08 03:00:31;;;;;;;72.03;30.73;;;;;;;4.33;57.42;100028.94;5080359;28;20067;-69
2021/12/08 03:03:00;;;;;;;71.97;32.22;;;;;;;4.38;57.55;100029.47;5096087;28;20130;-70
2021/12/08 03:05:28;;;;;;;73.63;31.63;;;;;;;4.64;56.91;100019.63;5097577;28;20094;-69
2021/12/08 03:07:55;;;;;;;73.80;32.15;;;;;;;4.65;56.45;100029.25;5096325;28;20063;-69
2021/12/08 03:10:26;;;;;;;78.35;32.45;;;;;;;3.99;58.58;100021.66;5096863;28;20083;-70
2021/12/08 03:12:52;;;;;;;72.30;31.23;;;;;;;4.38;57.21;100022.38;5096396;28;20059;-70
2021/12/08 03:15:20;;;;;;;69.55;30.23;;;;;;;4.47;57.16;100019.09;5096158;28;20068;-70
2021/12/08 03:17:46;;;;;;;66.80;30.98;;;;;;;4.64;56.81;100017.84;5092389;28;20043;-70
2021/12/08 03:20:16;;;;;;;69.07;30.15;;;;;;;4.85;55.30;100009.25;5075610;28;20044;-69
2021/12/08 03:22:47;;;;;;;78.50;30.75;;;;;;;4.63;56.25;100023.22;5091493;28;20048;-70
2021/12/08 03:25:18;;;;;;;79.00;32.65;;;;;;;4.57;56.76;100013.09;5096415;28;20055;-70
2021/12/08 03:28:03;;;;;;;71.43;31.52;;;;;;;4.19;57.37;100016.75;5078530;28;20060;-69
2021/12/08 03:30:36;;;;;;;76.97;31.90;;;;;;;4.34;57.21;100009.53;5074751;28;20052;-70
2021/12/08 03:33:03;;;;;;;70.10;31.33;;;;;;;4.31;56.94;100005.31;5075513;28;20452;-70
2021/12/08 03:35:29;;;;;;;70.28;32.50;;;;;;;4.35;57.65;100013.84;5076835;28;20480;-69
2021/12/08 03:37:57;;;;;;;67.85;30.50;;;;;;;4.31;57.79;100017.66;5075294;28;20040;-70
2021/12/08 03:40:26;;;;;;;65.15;30.10;;;;;;;4.20;57.74;100018.44;5075028;28;20127;-71
2021/12/08 03:42:56;;;;;;;73.85;31.52;;;;;;;4.53;56.95;100013.31;5078742;28;20123;-70
2021/12/08 03:45:34;;;;;;;68.28;30.33;;;;;;;4.24;57.22;100001.44;5088972;28;20097;-69
2021/12/08 03:48:06;;;;;;;66.80;31.85;;;;;;;4.50;56.92;99995.09;5090294;28;20130;-69
2021/12/08 03:50:36;;;;;;;66.78;30.10;;;;;;;4.47;56.57;99991.84;5105840;28;20103;-70
2021/12/08 03:53:06;;;;;;;71.15;31.02;;;;;;;4.72;56.24;99996.97;5094096;28;20064;-71
2021/12/08 03:55:37;;;;;;;66.97;30.13;;;;;;;4.40;56.99;100002.00;5096215;28;20048;-70
2021/12/08 03:58:06;;;;;;;69.18;31.00;;;;;;;4.27;57.68;99998.59;5094822;28;20067;-70
2021/12/08 04:00:33;;;;;;;68.90;31.23;;;;;;;4.20;57.15;99990.28;5089537;28;20072;-69
2021/12/08 04:03:04;;;;;;;68.60;32.92;;;;;;;4.36;57.49;99992.63;5074612;28;20045;-70
2021/12/08 04:05:41;;;;;;;66.78;32.13;;;;;;;4.46;56.65;99977.78;5084972;28;20049;-69
2021/12/08 04:08:15;;;;;;;70.95;32.72;;;;;;;4.60;56.59;99989.13;5083920;28;20123;-69
2021/12/08 04:10:44;;;;;;;66.53;30.55;;;;;;;4.12;57.80;99986.50;5074709;28;20114;-70
2021/12/08 04:13:10;;;;;;;69.28;32.35;;;;;;;4.26;57.23;99984.56;5074647;28;20048;-70
2021/12/08 04:15:37;;;;;;;76.13;33.13;;;;;;;4.27;57.28;99982.75;5074769;28;20044;-70
2021/12/08 04:18:04;;;;;;;75.45;32.25;;;;;;;4.66;56.45;99984.22;5074156;28;20041;-70
2021/12/08 04:20:37;;;;;;;70.13;32.42;;;;;;;4.43;57.00;99978.00;5058617;28;20065;-70
2021/12/08 04:23:06;;;;;;;67.82;32.95;;;;;;;4.76;56.33;99992.31;5074950;28;20102;-69
2021/12/08 04:25:37;;;;;;;69.25;31.73;;;;;;;4.77;56.13;99989.53;5075431;28;20119;-69
2021/12/08 04:28:10;;;;;;;68.72;33.83;;;;;;;4.79;55.72;99978.88;5076377;28;20056;-69
2021/12/08 04:30:41;;;;;;;68.95;32.35;;;;;;;4.41;56.91;99979.94;5075604;28;20136;-70
2021/12/08 04:33:09;;;;;;;52.05;24.73;;;;;;;4.91;55.87;99985.03;5066845;28;20068;-70
2021/12/08 04:35:39;;;;;;;69.53;32.08;;;;;;;5.11;55.16;99983.50;5089017;28;20079;-69
2021/12/08 04:38:11;;;;;;;72.65;31.17;;;;;;;5.04;55.26;99979.66;5075045;28;20044;-69
2021/12/08 04:41:05;;;;;;;73.72;33.83;;;;;;;4.63;56.76;99986.25;5073962;28;20090;-70
2021/12/08 04:43:51;;;;;;;69.13;33.08;;;;;;;4.68;56.22;99984.97;5075277;28;20071;-70
2021/12/08 04:49:35;;;;;;;71.65;31.92;;;;;;;4.39;57.31;99981.00;5042105;28;20144;-70
2021/12/08 04:52:13;;;;;;;73.40;33.33;;;;;;;4.80;55.97;99998.22;5074415;28;20094;-69
2021/12/08 05:03:43;;;;;;;71.82;32.80;;;;;;;4.10;58.48;99993.69;5093778;28;20048;-70
2021/12/08 05:06:38;;;;;;;68.50;33.13;;;;;;;4.74;56.61;99989.78;5094836;28;20051;-71
2021/12/08 05:09:09;;;;;;;69.70;31.27;;;;;;;4.54;56.79;99998.34;5095156;28;20245;-70
2021/12/08 05:11:40;;;;;;;69.57;33.08;;;;;;;4.58;56.75;99991.88;5091946;28;20060;-70
2021/12/08 05:14:15;;;;;;;69.18;31.73;;;;;;;4.51;56.66;99988.03;5094297;28;20079;-70
2021/12/08 05:16:45;;;;;;;73.00;32.28;;;;;;;4.58;56.98;99991.88;5093988;28;20040;-70
2021/12/08 05:19:16;;;;;;;73.10;32.35;;;;;;;4.69;55.87;99991.09;5095227;28;20496;-70
2021/12/08 05:21:56;;;;;;;69.47;32.83;;;;;;;5.11;54.93;99980.88;5098857;28;20064;-71
2021/12/08 05:24:32;;;;;;;69.47;32.30;;;;;;;4.07;57.85;99978.09;5098736;28;20052;-70
2021/12/08 05:27:04;;;;;;;71.82;31.98;;;;;;;4.76;56.23;99976.47;5097438;28;20064;-70
2021/12/08 05:29:47;;;;;;;68.88;32.60;;;;;;;4.66;55.94;99971.03;5096714;28;20104;-70
2021/12/08 05:32:14;;;;;;;67.93;29.80;;;;;;;4.30;56.61;99985.16;5097887;28;20047;-70
2021/12/08 05:34:41;;;;;;;71.90;30.77;;;;;;;4.84;55.84;99979.38;5098035;28;20074;-70
2021/12/08 05:37:10;;;;;;;66.78;30.02;;;;;;;4.34;57.21;99972.59;5098280;28;20115;-70
2021/12/08 05:39:38;;;;;;;64.15;28.67;;;;;;;4.27;57.05;99974.84;5098335;28;20070;-70
2021/12/08 05:42:11;;;;;;;63.05;28.27;;;;;;;4.48;56.37;99975.88;5097853;28;20127;-70
2021/12/08 05:44:40;;;;;;;63.95;30.00;;;;;;;4.51;55.89;99970.38;5097602;28;20075;-70
2021/12/08 05:47:12;;;;;;;61.53;28.77;;;;;;;4.52;55.87;99977.34;5096982;28;20117;-70
2021/12/08 05:49:38;;;;;;;;;;;;;;;4.63;55.45;99980.97;5097360;28;20502;-70
2021/12/08 05:52:06;;;;;;;65.72;29.30;;;;;;;4.40;55.70;99978.25;5091265;28;19966;-70
2021/12/08 05:54:37;;;;;;;63.67;29.20;;;;;;;4.77;55.35;99975.50;5097342;28;20127;-70
2021/12/08 05:57:08;;;;;;;64.47;28.98;;;;;;;4.65;55.57;99979.09;5096756;28;20143;-70
2021/12/08 05:59:35;;;;;;;62.55;27.63;;;;;;;4.35;56.02;99969.00;5098747;28;20059;-70
2021/12/08 06:02:08;;;;;;;60.15;27.73;;;;;;;4.43;55.98;99970.09;5097456;28;20407;-70
2021/12/08 06:04:34;;;;;;;61.40;28.45;;;;;;;4.23;56.74;99976.88;5096440;28;20131;-70
2021/12/08 06:07:03;;;;;;;63.50;27.52;;;;;;;4.36;56.37;99978.59;5097113;28;20082;-70
2021/12/08 06:09:30;;;;;;;62.92;28.00;;;;;;;4.33;56.69;99977.03;5096974;28;20040;-70
2021/12/08 06:11:58;;;;;;;66.93;29.67;;;;;;;4.09;57.46;99984.06;5096053;28;20150;-70
2021/12/08 06:14:32;;;;;;;59.67;28.33;;;;;;;4.51;56.07;99973.03;5096341;28;20072;-70
2021/12/08 06:17:02;;;;;;;69.45;29.50;;;;;;;4.13;57.08;99973.22;5097938;28;20489;-70
2021/12/08 06:19:30;;;;;;;62.58;28.83;;;;;;;4.74;55.44;99986.28;5095452;28;20111;-70
2021/12/08 06:21:56;;;;;;;68.53;30.13;;;;;;;4.41;56.31;99977.31;5097686;28;20048;-70
2021/12/08 06:24:23;;;;;;;62.50;28.40;;;;;;;4.56;55.96;99979.75;5097213;28;20124;-70
2021/12/08 06:26:52;;;;;;;63.15;29.63;;;;;;;4.45;56.10;99984.03;5095831;28;20067;-70
2021/12/08 06:29:19;;;;;;;68.55;30.65;;;;;;;4.11;56.61;99979.53;5094669;28;20072;-70
2021/12/08 06:31:52;;;;;;;62.80;28.25;;;;;;;4.50;56.05;99970.47;5094955;28;20068;-70
2021/12/08 06:34:20;;;;;;;68.82;30.38;;;;;;;4.74;55.32;99979.22;5094496;28;20072;-70
2021/12/08 06:36:55;;;;;;;66.45;28.42;;;;;;;4.90;54.94;99973.63;5094692;28;20070;-70
2021/12/08 06:39:27;;;;;;;69.00;29.83;;;;;;;5.05;54.76;99968.97;5096287;28;20462;-70
2021/12/08 06:42:05;;;;;;;68.00;30.15;;;;;;;4.62;55.53;99976.66;5094581;28;20999;-70
2021/12/08 06:44:40;;;;;;;64.55;28.52;;;;;;;4.30;56.18;99985.16;5095955;28;20048;-71
2021/12/08 06:47:11;;;;;;;74.50;29.63;;;;;;;4.35;56.33;99990.09;5097965;28;20070;-70
2021/12/08 06:49:39;;;;;;;66.55;30.38;;;;;;;4.22;57.11;99996.25;5096092;28;20536;-69
2021/12/08 06:52:14;;;;;;;71.40;30.52;;;;;;;4.18;56.79;99996.59;5087037;28;20044;-69
2021/12/08 06:54:45;;;;;;;72.25;31.02;;;;;;;4.72;55.87;99991.69;5098378;28;20040;-70
2021/12/08 06:57:22;;;;;;;75.45;30.33;;;;;;;4.56;55.85;99998.22;5097320;28;20067;-69
2021/12/08 07:00:14;;;;;;;73.63;30.98;;;;;;;4.32;56.41;100001.72;5095156;28;20040;-69
2021/12/08 07:05:27;;;;;;;76.95;31.25;;;;;;;4.40;56.08;99995.88;5096887;28;20051;-71
2021/12/08 07:07:59;;;;;;;71.07;30.33;;;;;;;4.49;55.79;99993.41;5095140;28;20048;-70
2021/12/08 07:10:32;;;;;;;71.75;31.52;;;;;;;4.59;55.48;100000.66;5095898;28;20404;-70
2021/12/08 07:13:06;;;;;;;79.07;30.08;;;;;;;4.69;55.09;99993.72;5087026;28;20044;-70
2021/12/08 07:15:47;;;;;;;81.30;31.35;;;;;;;4.51;56.04;99983.59;5081277;28;20108;-70
2021/12/08 07:18:38;;;;;;;75.75;30.75;;;;;;;4.78;54.80;99977.22;5088090;28;20048;-70
2021/12/08 07:21:10;;;;;;;80.65;32.58;;;;;;;4.46;55.60;99972.50;5095708;28;20101;-70
2021/12/08 07:23:43;;;;;;;78.35;31.58;;;;;;;4.36;56.00;99979.41;5095039;28;20111;-70
2021/12/08 07:26:14;;;;;;;75.50;32.85;;;;;;;4.34;56.00;99970.78;5093713;28;20047;-70
2021/12/08 07:28:41;;;;;;;78.32;30.58;;;;;;;4.84;54.64;99976.72;5077948;28;20044;-70
2021/12/08 07:31:30;;;;;;;83.72;31.48;;;;;;;4.77;55.30;99980.78;5073714;28;20059;-71
2021/12/08 07:34:04;;;;;;;83.38;31.50;;;;;;;4.40;55.73;99975.63;5073573;28;20102;-71
2021/12/08 07:36:34;;;;;;;92.03;33.83;;;;;;;4.62;55.41;99976.66;5074374;28;20062;-71
2021/12/08 07:39:02;;;;;;;79.40;32.38;;;;;;;4.68;54.65;99984.97;5076212;28;20132;-71
2021/12/08 07:41:33;;;;;;;80.15;30.25;;;;;;;4.23;55.97;99987.41;5074994;28;20044;-71
2021/12/08 07:44:08;;;;;;;87.95;33.25;;;;;;;4.56;55.82;99985.88;5085049;28;20048;-71
2021/12/08 07:46:39;;;;;;;83.72;31.75;;;;;;;3.99;56.87;99982.13;5094973;28;20064;-71
2021/12/08 07:49:16;;;;;;;81.28;32.72;;;;;;;4.36;55.99;99984.69;5095419;28;20051;-70
2021/12/08 07:52:02;;;;;;;87.57;30.65;;;;;;;4.46;55.81;99969.03;5095827;28;20423;-70
2021/12/08 07:54:31;;;;;;;76.93;30.00;;;;;;;4.65;55.72;99968.53;5094770;28;20050;-70
2021/12/08 07:57:00;;;;;;;88.07;33.22;;;;;;;5.19;55.13;99952.06;5076315;28;20150;-70
2021/12/08 07:59:28;;;;;;;82.80;31.85;;;;;;;5.04;54.48;99954.09;5095318;28;20059;-70
2021/12/08 08:01:58;;;;;;;87.65;32.15;;;;;;;4.74;55.44;99950.16;5094677;28;21644;-70
2021/12/08 08:04:27;;;;;;;86.90;32.80;;;;;;;4.83;54.85;99950.44;5095101;28;20048;-70
2021/12/08 08:06:57;;;;;;;84.88;31.65;;;;;;;5.37;53.19;99945.34;5093329;28;20072;-71
2021/12/08 08:09:28;;;;;;;87.28;33.15;;;;;;;4.74;55.01;99946.69;5095110;28;20467;-70
2021/12/08 08:11:58;;;;;;;77.88;30.60;;;;;;;5.11;53.95;99946.53;5094970;28;20472;-70
2021/12/08 08:14:29;;;;;;;89.63;33.73;;;;;;;5.11;54.01;99949.16;5094795;28;20082;-71
2021/12/08 08:16:58;;;;;;;67.35;25.05;;;;;;;4.81;54.73;99947.91;5095219;28;20282;-70
2021/12/08 08:19:29;;;;;;;93.18;34.17;;;;;;;4.85;54.61;99944.09;5095612;28;20040;-69
2021/12/08 08:22:02;;;;;;;90.95;33.22;;;;;;;4.73;55.20;99953.78;5091756;28;20059;-70
2021/12/08 08:24:28;;;;;;;81.05;32.83;;;;;;;4.56;55.07;99963.91;5095095;28;20074;-70
2021/12/08 08:26:58;;;;;;;87.97;33.17;;;;;;;5.04;53.67;99947.97;5095618;28;20131;-70
2021/12/08 08:29:25;;;;;;;93.30;31.30;;;;;;;4.47;55.56;99955.75;5094122;28;20131;-70
2021/12/08 08:32:00;;;;;;;84.18;32.70;;;;;;;4.55;55.89;99957.81;5095463;28;20428;-70
2021/12/08 08:34:33;;;;;;;90.35;31.70;;;;;;;5.25;53.36;99948.94;5094928;28;20071;-70
2021/12/08 08:37:00;;;;;;;88.20;30.90;;;;;;;4.76;54.15;99953.53;5093372;28;20164;-70
2021/12/08 08:39:31;;;;;;;90.63;33.67;;;;;;;5.08;54.11;99955.53;5090235;28;20140;-70
2021/12/08 08:42:08;;;;;;;89.45;32.95;;;;;;;4.86;54.67;99947.56;5094623;28;20130;-70
2021/12/08 08:44:49;;;;;;;87.00;32.13;;;;;;;5.18;54.12;99951.22;5094659;28;20131;-70
2021/12/08 08:47:23;;;;;;;94.45;34.65;;;;;;;5.06;53.79;99946.91;5093411;28;20376;-72
2021/12/08 08:49:50;;;;;;;96.20;33.55;;;;;;;5.19;53.58;99950.25;5084506;28;20123;-73
2021/12/08 08:52:45;;;;;;;89.88;30.92;;;;;;;4.73;54.86;99937.94;5106646;28;20068;-72
2021/12/08 08:55:42;;;;;;;92.85;33.95;;;;;;;4.98;54.00;99938.69;5094725;28;20055;-73
2021/12/08 08:58:11;;;;;;;96.75;32.67;;;;;;;4.53;55.20;99944.72;5095118;28;20055;-73
2021/12/08 09:00:47;;;;;;;85.82;31.13;;;;;;;4.65;55.15;99932.41;5098160;28;20048;-72
2021/12/08 09:03:18;;;;;;;90.57;31.55;;;;;;;4.85;54.57;99933.53;5097369;28;20528;-72
2021/12/08 09:05:52;;;;;;;92.57;33.92;;;;;;;5.15;53.87;99935.59;5098652;28;20040;-72
2021/12/08 09:08:22;;;;;;;87.05;32.08;;;;;;;5.11;53.85;99926.22;5093270;28;20054;-71
2021/12/08 09:10:54;;;;;;;92.35;33.17;;;;;;;5.01;54.45;99926.09;5097552;28;20047;-71
2021/12/08 09:13:29;;;;;;;93.25;33.72;;;;;;;4.77;54.87;99925.34;5097679;28;20108;-71
2021/12/08 09:16:02;;;;;;;89.57;33.92;;;;;;;4.95;54.23;99923.97;5098381;28;20040;-72
2021/12/08 09:18:47;;;;;;;91.30;33.75;;;;;;;4.93;55.00;99931.13;5099939;28;20062;-71
2021/12/08 09:21:35;;;;;;;89.47;32.28;;;;;;;4.95;54.18;99928.38;5100037;28;20048;-71
2021/12/08 09:24:16;;;;;;;89.25;34.72;;;;;;;4.91;54.77;99919.00;5097995;28;20044;-72
2021/12/08 09:26:54;;;;;;;92.07;33.22;;;;;;;5.14;54.26;99915.44;5098557;28;20040;-72
2021/12/08 09:29:25;;;;;;;91.63;33.35;;;;;;;5.06;54.39;99927.53;5097564;28;20044;-72
2021/12/08 09:32:06;;;;;;;86.53;32.45;;;;;;;5.72;52.67;99923.22;5096787;28;20395;-72
2021/12/08 09:34:39;;;;;;;91.40;32.63;;;;;;;4.94;54.21;99916.97;5095957;28;20040;-72
2021/12/08 09:37:16;;;;;;;93.78;31.85;;;;;;;5.11;53.91;99910.38;5095508;28;20051;-72
2021/12/08 09:39:47;;;;;;;87.15;33.17;;;;;;;5.12;54.27;99919.97;5095222;28;20044;-72
2021/12/08 09:42:24;;;;;;;92.15;35.30;;;;;;;5.20;53.71;99922.88;5097575;28;20127;-72
2021/12/08 09:44:56;;;;;;;90.45;33.25;;;;;;;5.57;52.83;99921.78;5094635;28;20112;-73
2021/12/08 09:47:28;;;;;;;97.40;33.80;;;;;;;5.41;53.31;99919.53;5096211;28;20499;-72
2021/12/08 09:49:58;;;;;;;94.25;35.45;;;;;;;5.69;52.61;99926.09;5095931;28;20044;-72
2021/12/08 09:52:27;;;;;;;87.07;35.00;;;;;;;5.41;53.73;99925.66;5097396;28;20067;-71
2021/12/08 09:54:56;;;;;;;92.30;35.00;;;;;;;5.55;52.95;99915.78;5099026;28;20066;-72
2021/12/08 09:57:24;;;;;;;86.53;33.45;;;;;;;5.42;53.23;99916.75;5097708;28;20076;-72
2021/12/08 09:59:51;;;;;;;89.75;33.80;;;;;;;5.37;53.97;99907.50;5096654;28;20040;-72
2021/12/08 10:02:27;;;;;;;88.05;35.08;;;;;;;4.97;54.53;99910.63;5094624;28;20454;-72
2021/12/08 10:05:05;;;;;;;94.32;35.13;;;;;;;5.06;54.42;99911.69;5099073;28;20059;-72
2021/12/08 10:07:32;;;;;;;90.00;35.20;;;;;;;5.55;53.00;99899.94;5097614;28;20059;-72
2021/12/08 10:09:59;;;;;;;88.65;34.72;;;;;;;5.85;52.12;99904.53;5097152;28;20048;-72
2021/12/08 10:12:26;;;;;;;85.90;34.92;;;;;;;5.46;53.16;99886.47;5099912;28;20048;-72
2021/12/08 10:14:52;;;;;;;96.40;36.30;;;;;;;6.04;51.93;99896.00;5091197;28;20047;-72
2021/12/08 10:17:20;;;;;;;93.40;34.40;;;;;;;5.71;52.61;99889.78;5096418;28;20075;-71
2021/12/08 10:20:06;;;;;;;89.97;35.15;;;;;;;5.14;54.05;99880.25;5100893;28;20064;-72
2021/12/08 10:22:33;;;;;;;99.00;33.75;;;;;;;5.50;53.40;99871.19;5097199;28;20039;-72
2021/12/08 10:25:21;;;;;;;98.97;36.05;;;;;;;5.60;52.97;99877.44;5097947;28;20448;-72
2021/12/08 10:28:08;;;;;;;102.10;35.72;;;;;;;5.77;52.35;99873.44;5096888;28;20063;-71
2021/12/08 10:30:58;;;;;;;89.28;34.83;;;;;;;5.85;52.35;99873.63;5096645;28;20127;-72
2021/12/08 10:33:47;;;;;;;91.97;35.40;;;;;;;5.62;52.92;99867.59;5083038;28;20051;-71
2021/12/08 10:36:32;;;;;;;91.90;35.22;;;;;;;5.63;53.17;99866.63;5096952;28;20063;-71
2021/12/08 10:39:06;;;;;;;90.88;34.80;;;;;;;5.81;52.58;99868.72;5097580;28;20052;-71
2021/12/08 10:42:05;;;;;;;88.15;33.88;;;;;;;5.71;52.80;99887.16;5096548;28;20086;-71
2021/12/08 10:44:56;;;;;;;94.90;35.63;;;;;;;6.03;52.13;99881.09;5084035;28;20407;-72
2021/12/08 10:47:36;;;;;;;89.88;33.63;;;;;;;5.85;52.59;99876.28;5095574;28;20044;-72
2021/12/08 10:56:00;;;;;;;93.85;34.70;;;;;;;5.93;51.89;99846.63;5096479;28;20387;-72
2021/12/08 10:58:30;;;;;;;79.88;33.72;;;;;;;5.81;52.07;99847.56;5098169;28;20056;-72
2021/12/08 11:01:07;;;;;;;99.50;34.45;;;;;;;5.34;53.37;99844.34;5098352;28;20041;-71
2021/12/08 11:03:35;;;;;;;82.30;36.08;;;;;;;5.73;52.07;99845.56;5099373;28;20063;-72
2021/12/08 11:06:04;;;;;;;86.10;33.45;;;;;;;5.95;51.79;99850.78;5097389;28;20056;-71
2021/12/08 11:08:34;;;;;;;92.72;35.92;;;;;;;5.53;52.99;99841.88;5094788;28;20043;-72
2021/12/08 11:11:22;;;;;;;88.05;35.47;;;;;;;6.33;51.37;99860.00;5095206;28;20068;-71
2021/12/08 11:13:54;;;;;;;88.35;34.40;;;;;;;6.13;50.96;99859.03;5096846;28;20039;-72
2021/12/08 11:16:24;;;;;;;86.25;35.03;;;;;;;5.99;51.83;99869.06;5097188;28;20064;-71
2021/12/08 11:19:01;;;;;;;95.15;36.20;;;;;;;6.48;50.30;99857.91;5097481;28;20044;-72
2021/12/08 11:21:35;;;;;;;86.93;34.75;;;;;;;5.86;51.87;99866.56;5097554;28;20044;-72
2021/12/08 11:24:35;;;;;;;85.88;33.25;;;;;;;6.54;50.50;99849.41;5095444;28;20475;-72
2021/12/08 11:27:07;;;;;;;76.32;32.50;;;;;;;6.34;50.78;99844.97;5099553;28;20479;-73
2021/12/08 11:29:37;;;;;;;88.60;34.00;;;;;;;5.86;51.83;99854.19;5099958;28;20054;-72
2021/12/08 11:32:07;;;;;;;88.13;34.40;;;;;;;6.28;50.86;99841.03;5098736;28;20124;-72
2021/12/08 11:34:42;;;;;;;83.30;32.92;;;;;;;6.55;50.18;99831.75;5098412;28;20043;-72
2021/12/08 11:37:32;;;;;;;91.03;34.33;;;;;;;6.11;50.54;99829.22;5095991;28;20111;-72
2021/12/08 11:40:02;;;;;;;88.63;35.17;;;;;;;6.46;50.83;99845.75;5095907;28;20055;-71
2021/12/08 11:42:33;;;;;;;84.13;33.50;;;;;;;6.18;50.72;99840.13;5096053;28;20048;-72
2021/12/08 11:45:10;;;;;;;90.55;34.53;;;;;;;5.93;51.85;99842.16;5096616;28;20044;-72
2021/12/08 11:47:36;;;;;;;87.70;33.92;;;;;;;6.06;51.39;99830.56;5096690;28;20055;-72
2021/12/08 11:50:21;;;;;;;78.70;34.00;;;;;;;6.10;51.27;99829.34;5095930;28;20403;-71
2021/12/08 11:52:53;;;;;;;90.35;35.95;;;;;;;6.19;51.28;99836.50;5095575;28;20047;-72
2021/12/08 11:55:22;;;;;;;85.05;32.85;;;;;;;6.09;51.74;99831.13;5097234;28;20044;-72
2021/12/08 11:57:54;;;;;;;91.43;35.55;;;;;;;5.91;52.13;99833.47;5097127;28;20063;-72
2021/12/08 12:00:27;;;;;;;82.22;33.80;;;;;;;6.62;50.16;99848.78;5096963;28;20472;-71
2021/12/08 12:03:00;;;;;;;83.68;32.45;;;;;;;6.31;51.32;99843.44;5095448;28;20044;-71
2021/12/08 12:05:35;;;;;;;87.35;32.92;;;;;;;6.61;50.52;99852.38;5102428;28;20519;-72
2021/12/08 12:08:04;;;;;;;85.35;33.40;;;;;;;6.33;50.31;99852.06;5094746;28;20119;-71
2021/12/08 12:10:36;;;;;;;83.05;32.72;;;;;;;5.89;51.95;99861.03;5095606;28;20048;-71
2021/12/08 12:13:08;;;;;;;81.90;33.10;;;;;;;5.81;52.35;99858.16;5095789;28;22293;-74
2021/12/08 12:15:40;;;;;;;78.35;32.65;;;;;;;6.41;50.99;99852.28;5095445;28;20109;-71
2021/12/08 12:18:06;;;;;;;82.40;34.47;;;;;;;6.28;51.26;99850.78;5095368;28;20044;-71
2021/12/08 12:20:44;;;;;;;82.82;33.15;;;;;;;6.61;50.27;99858.53;5097195;28;20056;-71
2021/12/08 12:23:36;;;;;;;78.03;32.70;;;;;;;6.50;50.28;99863.91;5095255;28;20048;-72
2021/12/08 12:26:23;;;;;;;94.50;32.80;;;;;;;6.27;51.43;99855.25;5096616;28;20093;-71
2021/12/08 12:29:06;;;;;;;78.85;32.38;;;;;;;6.14;51.36;99854.59;5094956;28;20060;-72